Time;durP1;ratioP1;P1;durP2;ratioP2;P2;SDS_P1;SDS_P2;PMS_P1;PMS_P2;Temp;Humidity;BMP_temperature;BMP_pressure;BME280_temperature;BME280_humidity;BME280_pressure;Samples;Min_cycle;Max_cycle;Signal;HPM_P1;HPM_P2
2021/06/10 00:00:33;;;;;;;4.95;3.10;;;23.80;52.90;;;;;;5051807;28;20021;-68
2021/06/10 00:02:58;;;;;;;5.53;3.00;;;23.80;52.90;;;;;;5053040;28;20118;-68
2021/06/10 00:05:24;;;;;;;5.75;3.20;;;23.80;52.90;;;;;;5052840;28;20029;-67
2021/06/10 00:07:51;;;;;;;4.82;3.10;;;23.80;52.90;;;;;;5051470;28;20082;-67
2021/06/10 00:10:20;;;;;;;5.35;3.22;;;23.80;53.00;;;;;;5052794;28;20368;-67
2021/06/10 00:12:46;;;;;;;5.22;3.13;;;23.70;53.00;;;;;;5052742;28;20503;-67
2021/06/10 00:15:20;;;;;;;4.65;3.08;;;23.80;53.00;;;;;;5052874;28;20025;-67
2021/06/10 00:17:47;;;;;;;5.32;3.30;;;23.70;53.00;;;;;;5053113;28;20029;-68
2021/06/10 00:20:15;;;;;;;5.18;2.90;;;23.70;53.00;;;;;;5052841;28;20017;-68
2021/06/10 00:22:40;;;;;;;5.57;3.40;;;23.70;53.00;;;;;;5052669;28;20028;-67
2021/06/10 00:25:08;;;;;;;4.88;2.95;;;23.70;53.00;;;;;;5052923;28;20039;-67
2021/06/10 00:27:34;;;;;;;5.70;3.10;;;23.70;53.00;;;;;;5052744;28;20021;-67
2021/06/10 00:29:59;;;;;;;6.18;3.15;;;23.70;53.00;;;;;;5052805;28;20538;-68
2021/06/10 00:32:25;;;;;;;6.30;3.33;;;23.70;53.10;;;;;;5053409;28;20047;-67
2021/06/10 00:34:50;;;;;;;5.72;3.20;;;23.70;53.10;;;;;;5056809;28;20510;-67
2021/06/10 00:37:17;;;;;;;5.07;3.15;;;23.60;53.10;;;;;;5056729;28;20032;-67
2021/06/10 00:39:43;;;;;;;5.57;3.35;;;23.60;53.10;;;;;;5056639;28;20052;-68
2021/06/10 00:42:09;;;;;;;5.43;3.65;;;23.70;53.20;;;;;;5056624;28;20052;-67
2021/06/10 00:44:35;;;;;;;5.60;3.50;;;23.60;53.20;;;;;;5056397;28;20056;-67
2021/06/10 00:47:01;;;;;;;7.00;3.65;;;23.60;53.10;;;;;;5056575;28;20037;-68
2021/06/10 00:49:27;;;;;;;6.63;3.65;;;23.50;53.20;;;;;;5056547;28;20075;-67
2021/06/10 00:51:52;;;;;;;5.97;3.22;;;23.60;53.20;;;;;;5056417;28;20523;-67
2021/06/10 00:54:18;;;;;;;5.03;3.00;;;23.60;53.20;;;;;;5056420;28;20025;-67
2021/06/10 00:56:44;;;;;;;5.43;3.33;;;23.60;53.30;;;;;;5055152;28;20541;-67
2021/06/10 00:59:10;;;;;;;5.03;3.25;;;23.60;53.30;;;;;;5056598;28;20028;-67
2021/06/10 01:01:35;;;;;;;5.88;3.30;;;23.50;53.30;;;;;;5056224;28;20025;-68
2021/06/10 01:04:01;;;;;;;5.72;3.50;;;23.50;53.30;;;;;;5056123;28;20120;-67
2021/06/10 01:06:51;;;;;;;5.30;3.42;;;23.50;53.30;;;;;;5056344;28;20037;-67
2021/06/10 01:09:35;;;;;;;5.85;3.65;;;23.50;53.30;;;;;;5056183;28;20070;-68
2021/06/10 01:12:12;;;;;;;4.13;2.83;;;23.50;53.30;;;;;;5056205;28;20470;-68
2021/06/10 01:14:55;;;;;;;5.55;3.40;;;23.50;53.40;;;;;;5055962;28;20350;-68
2021/06/10 01:17:23;;;;;;;4.82;2.95;;;23.50;53.40;;;;;;5054760;28;20036;-67
2021/06/10 01:20:03;;;;;;;6.03;2.95;;;23.50;53.50;;;;;;5056270;28;20074;-68
2021/06/10 01:22:59;;;;;;;4.97;3.20;;;23.50;53.40;;;;;;5055916;28;20079;-68
2021/06/10 01:25:34;;;;;;;5.53;3.28;;;23.50;53.50;;;;;;5055968;28;20029;-68
2021/06/10 01:28:21;;;;;;;5.45;3.13;;;23.40;53.50;;;;;;5056107;28;20025;-68
2021/06/10 01:30:57;;;;;;;6.43;4.05;;;23.40;53.50;;;;;;5055777;28;20024;-69
2021/06/10 01:33:27;;;;;;;6.15;3.58;;;23.40;53.50;;;;;;5055635;28;20025;-68
2021/06/10 01:36:00;;;;;;;5.40;3.55;;;23.40;53.60;;;;;;5055625;28;20469;-68
2021/06/10 01:38:26;;;;;;;5.38;3.40;;;23.40;53.60;;;;;;5054323;28;20028;-68
2021/06/10 01:40:54;;;;;;;5.80;3.47;;;23.40;53.60;;;;;;5055834;28;20021;-68
2021/06/10 01:43:21;;;;;;;6.57;3.45;;;23.40;53.60;;;;;;5054732;28;20503;-68
2021/06/10 01:45:49;;;;;;;7.30;3.70;;;23.40;53.60;;;;;;5055329;28;20036;-68
2021/06/10 01:48:18;;;;;;;5.82;3.80;;;23.40;53.60;;;;;;5055479;28;20075;-68
2021/06/10 01:50:47;;;;;;;5.47;3.42;;;23.40;53.60;;;;;;5055411;28;20478;-68
2021/06/10 01:53:14;;;;;;;7.00;3.05;;;23.40;53.60;;;;;;5055316;28;20021;-69
2021/06/10 01:55:41;;;;;;;5.22;3.40;;;23.40;53.60;;;;;;5055295;28;20099;-68
2021/06/10 01:58:08;;;;;;;6.53;3.28;;;23.30;53.60;;;;;;5055303;28;20020;-68
2021/06/10 02:00:34;;;;;;;6.22;3.22;;;23.30;53.70;;;;;;5055228;28;20021;-68
2021/06/10 02:03:01;;;;;;;9.90;3.50;;;23.30;53.70;;;;;;5055344;28;20035;-68
2021/06/10 02:05:28;;;;;;;7.00;3.35;;;23.30;53.70;;;;;;5055105;28;20033;-68
2021/06/10 02:07:54;;;;;;;6.93;3.55;;;23.30;53.70;;;;;;5055366;28;20032;-68
2021/06/10 02:10:22;;;;;;;5.65;3.13;;;23.30;53.70;;;;;;5055072;28;20029;-69
2021/06/10 02:12:48;;;;;;;5.68;3.47;;;23.30;53.70;;;;;;5054996;28;20021;-68
2021/06/10 02:15:15;;;;;;;5.53;3.33;;;23.30;53.70;;;;;;5055162;28;20027;-68
2021/06/10 02:17:41;;;;;;;5.85;3.80;;;23.30;53.70;;;;;;5054797;28;20064;-68
2021/06/10 02:20:08;;;;;;;5.25;3.53;;;23.20;53.70;;;;;;5054839;28;20021;-68
2021/06/10 02:22:34;;;;;;;9.15;3.83;;;23.20;53.80;;;;;;5054840;28;20021;-69
2021/06/10 02:25:01;;;;;;;6.05;3.55;;;23.20;53.80;;;;;;5054607;28;20029;-69
2021/06/10 02:27:27;;;;;;;5.97;3.72;;;23.20;53.70;;;;;;5054614;28;20071;-68
2021/06/10 02:29:53;;;;;;;7.07;4.07;;;23.20;53.80;;;;;;5054672;28;20078;-68
2021/06/10 02:32:18;;;;;;;5.32;3.30;;;23.20;53.80;;;;;;5053325;28;20025;-68
2021/06/10 02:34:44;;;;;;;5.30;3.20;;;23.20;53.80;;;;;;5054650;28;20021;-68
2021/06/10 02:37:12;;;;;;;5.82;3.15;;;23.20;53.80;;;;;;5054588;28;20484;-69
2021/06/10 02:39:40;;;;;;;5.10;3.53;;;23.20;53.80;;;;;;5054506;28;20025;-68
2021/06/10 02:42:07;;;;;;;5.47;3.50;;;23.20;53.80;;;;;;5054365;28;20028;-68
2021/06/10 02:44:33;;;;;;;5.15;3.17;;;23.20;53.80;;;;;;5054103;28;20422;-68
2021/06/10 02:47:03;;;;;;;5.15;3.10;;;23.20;53.80;;;;;;5054314;28;20033;-68
2021/06/10 02:49:31;;;;;;;5.30;3.42;;;23.20;53.80;;;;;;5054276;28;20392;-68
2021/06/10 02:51:57;;;;;;;5.70;3.80;;;23.10;53.80;;;;;;5054239;28;20527;-68
2021/06/10 02:54:24;;;;;;;5.95;3.38;;;23.10;53.90;;;;;;5053921;28;20037;-69
2021/06/10 02:56:50;;;;;;;6.22;3.67;;;23.10;53.90;;;;;;5053424;28;20020;-68
2021/06/10 02:59:18;;;;;;;6.05;3.63;;;23.10;53.90;;;;;;5054105;28;20385;-68
2021/06/10 03:01:45;;;;;;;4.60;3.10;;;23.10;54.00;;;;;;5054076;28;20027;-68
2021/06/10 03:04:14;;;;;;;6.20;3.53;;;23.10;54.00;;;;;;5052794;28;20017;-68
2021/06/10 03:06:40;;;;;;;5.47;3.17;;;23.10;54.00;;;;;;5053933;28;20029;-69
2021/06/10 03:09:07;;;;;;;5.00;3.20;;;23.10;54.00;;;;;;5053895;28;20025;-68
2021/06/10 03:11:33;;;;;;;5.53;3.58;;;23.10;54.10;;;;;;5052598;28;20055;-68
2021/06/10 03:14:01;;;;;;;5.05;3.13;;;23.10;54.10;;;;;;5053752;28;20020;-68
2021/06/10 03:16:27;;;;;;;6.22;3.75;;;23.00;54.10;;;;;;5053859;28;20013;-68
2021/06/10 03:18:56;;;;;;;6.82;3.83;;;23.00;54.10;;;;;;5053696;28;20029;-68
2021/06/10 03:21:23;;;;;;;5.82;3.47;;;23.00;54.10;;;;;;5053696;28;20338;-69
2021/06/10 03:23:49;;;;;;;6.47;3.80;;;23.00;54.10;;;;;;5053526;28;20052;-68
2021/06/10 03:26:18;;;;;;;7.00;3.70;;;23.00;54.30;;;;;;5053688;28;20473;-68
2021/06/10 03:28:43;;;;;;;6.43;4.05;;;23.00;54.20;;;;;;5053555;28;20017;-68
2021/06/10 03:31:09;;;;;;;6.65;3.80;;;23.00;54.30;;;;;;5053498;28;20383;-68
2021/06/10 03:33:35;;;;;;;5.68;3.60;;;23.00;54.20;;;;;;5054055;28;20029;-69
2021/06/10 03:36:02;;;;;;;6.43;3.92;;;23.00;54.30;;;;;;5053424;28;20472;-68
2021/06/10 03:38:28;;;;;;;7.60;4.00;;;23.00;54.30;;;;;;5053354;28;20534;-68
2021/06/10 03:40:57;;;;;;;6.00;3.50;;;23.00;54.30;;;;;;5053315;28;20024;-68
2021/06/10 03:43:24;;;;;;;6.78;3.80;;;23.00;54.30;;;;;;5053048;28;20040;-68
2021/06/10 03:45:50;;;;;;;7.78;4.07;;;23.00;54.30;;;;;;5051953;28;20047;-68
2021/06/10 03:48:16;;;;;;;8.48;4.00;;;23.00;54.40;;;;;;5053461;28;20096;-68
2021/06/10 03:50:43;;;;;;;5.25;3.20;;;23.00;54.40;;;;;;5053076;28;20448;-68
2021/06/10 03:53:09;;;;;;;5.97;3.78;;;22.90;54.40;;;;;;5053166;28;20385;-68
2021/06/10 03:55:35;;;;;;;5.50;3.30;;;22.90;54.40;;;;;;5053077;28;20021;-68
2021/06/10 03:58:01;;;;;;;5.68;3.47;;;22.90;54.40;;;;;;5053065;28;20442;-68
2021/06/10 04:00:27;;;;;;;5.82;3.35;;;22.90;54.40;;;;;;5053018;28;20107;-68
2021/06/10 04:02:52;;;;;;;5.57;3.50;;;22.90;54.40;;;;;;5052985;28;20112;-68
2021/06/10 04:05:18;;;;;;;5.03;3.38;;;22.90;54.50;;;;;;5052991;28;20033;-67
2021/06/10 04:07:43;;;;;;;5.93;3.83;;;22.90;54.50;;;;;;5052950;28;20025;-68
2021/06/10 04:10:10;;;;;;;8.55;3.92;;;22.90;54.50;;;;;;5052961;28;20040;-68
2021/06/10 04:12:35;;;;;;;7.22;3.97;;;22.90;54.50;;;;;;5052851;28;20504;-68
2021/06/10 04:15:02;;;;;;;5.40;3.75;;;22.80;54.50;;;;;;5052833;28;20094;-68
2021/06/10 04:17:28;;;;;;;6.53;3.97;;;22.90;54.60;;;;;;5052870;28;20064;-68
2021/06/10 04:19:53;;;;;;;5.82;3.67;;;22.90;54.60;;;;;;5052799;28;20060;-67
2021/06/10 04:22:19;;;;;;;6.03;3.60;;;22.80;54.60;;;;;;5052839;28;20430;-67
2021/06/10 04:24:44;;;;;;;4.97;3.42;;;22.80;54.60;;;;;;5051393;28;20035;-68
2021/06/10 04:27:10;;;;;;;5.53;3.28;;;22.80;54.60;;;;;;5052805;28;20100;-68
2021/06/10 04:29:36;;;;;;;6.30;3.53;;;22.90;54.60;;;;;;5052850;28;20056;-68
2021/06/10 04:32:01;;;;;;;6.05;3.08;;;22.80;54.50;;;;;;5051388;28;20037;-68
2021/06/10 04:34:27;;;;;;;6.80;4.15;;;22.80;54.60;;;;;;5052622;28;20029;-68
2021/06/10 04:36:53;;;;;;;5.63;3.50;;;22.90;54.60;;;;;;5052883;28;20025;-68
2021/06/10 04:39:19;;;;;;;5.50;3.70;;;22.80;54.60;;;;;;5052642;28;20443;-68
2021/06/10 04:41:44;;;;;;;6.32;3.80;;;22.80;54.60;;;;;;5051336;28;20457;-69
2021/06/10 04:44:10;;;;;;;5.78;3.35;;;22.80;54.70;;;;;;5052439;28;20045;-68
2021/06/10 04:46:35;;;;;;;6.15;3.78;;;22.80;54.70;;;;;;5052514;28;20477;-68
2021/06/10 04:49:02;;;;;;;7.78;4.18;;;22.80;54.60;;;;;;5052650;28;20035;-67
2021/06/10 04:51:28;;;;;;;6.03;3.42;;;22.80;54.70;;;;;;5052584;28;20025;-68
2021/06/10 04:53:55;;;;;;;7.75;3.58;;;22.90;54.60;;;;;;5052647;28;20017;-67
2021/06/10 04:56:22;;;;;;;6.05;3.88;;;22.80;54.60;;;;;;5052721;28;20143;-68
2021/06/10 04:58:47;;;;;;;5.82;3.92;;;22.80;54.60;;;;;;5052206;28;20503;-68
2021/06/10 05:01:13;;;;;;;6.05;3.55;;;22.80;54.60;;;;;;5052315;28;20029;-68
2021/06/10 05:03:39;;;;;;;5.50;3.70;;;22.80;54.60;;;;;;5052341;28;20032;-67
2021/06/10 05:06:04;;;;;;;7.57;3.97;;;22.80;54.50;;;;;;5052301;28;20037;-68
2021/06/10 05:08:30;;;;;;;7.70;4.13;;;22.80;54.60;;;;;;5052403;28;20075;-68
2021/06/10 05:10:55;;;;;;;7.05;3.70;;;22.80;54.50;;;;;;5052627;28;20029;-68
2021/06/10 05:13:21;;;;;;;6.05;3.75;;;22.80;54.50;;;;;;5052180;28;20028;-69
2021/06/10 05:15:47;;;;;;;6.30;3.92;;;22.80;54.60;;;;;;5052280;28;20036;-68
2021/06/10 05:18:12;;;;;;;5.68;3.63;;;22.80;54.60;;;;;;5051244;28;20018;-68
2021/06/10 05:20:38;;;;;;;6.10;3.55;;;22.80;54.60;;;;;;5055849;28;20108;-67
2021/06/10 05:23:03;;;;;;;7.18;4.20;;;22.80;54.60;;;;;;5056038;28;20040;-68
2021/06/10 05:25:29;;;;;;;5.93;3.60;;;22.80;54.50;;;;;;5055899;28;20450;-68
2021/06/10 05:27:55;;;;;;;5.57;3.65;;;22.80;54.60;;;;;;5055863;28;20032;-68
2021/06/10 05:30:21;;;;;;;5.47;3.60;;;22.80;54.60;;;;;;5054515;28;20025;-68
2021/06/10 05:32:47;;;;;;;7.40;3.70;;;22.80;54.70;;;;;;5054392;28;20017;-67
2021/06/10 05:35:13;;;;;;;5.30;3.40;;;22.70;54.80;;;;;;5055686;28;20029;-68
2021/06/10 05:37:39;;;;;;;6.13;3.58;;;22.80;54.70;;;;;;5055638;28;20070;-68
2021/06/10 05:40:06;;;;;;;5.53;3.25;;;22.80;54.70;;;;;;5055630;28;20112;-68
2021/06/10 05:42:32;;;;;;;5.32;3.47;;;22.70;54.70;;;;;;5055371;28;20025;-68
2021/06/10 05:44:57;;;;;;;5.53;3.40;;;22.80;54.70;;;;;;5055186;28;20049;-68
2021/06/10 05:47:23;;;;;;;6.88;4.15;;;22.80;54.70;;;;;;5055483;28;20029;-67
2021/06/10 05:49:49;;;;;;;6.22;3.75;;;22.70;54.70;;;;;;5055466;28;20087;-68
2021/06/10 05:52:14;;;;;;;5.50;3.45;;;22.80;54.60;;;;;;5055601;28;20029;-68
2021/06/10 05:54:40;;;;;;;5.82;3.33;;;22.80;54.50;;;;;;5055166;28;20017;-68
2021/06/10 05:57:06;;;;;;;6.20;4.00;;;22.90;54.40;;;;;;5055376;28;20039;-68
2021/06/10 05:59:31;;;;;;;6.75;4.13;;;22.90;54.40;;;;;;5055202;28;20082;-68
2021/06/10 06:01:57;;;;;;;5.38;3.38;;;22.90;54.20;;;;;;5055038;28;20033;-68
2021/06/10 06:04:23;;;;;;;5.45;3.47;;;22.90;54.20;;;;;;5055031;28;20059;-68
2021/06/10 06:06:48;;;;;;;5.78;3.65;;;22.90;54.20;;;;;;5053626;28;20036;-68
2021/06/10 06:09:15;;;;;;;6.43;3.40;;;22.90;54.20;;;;;;5055166;28;20021;-69
2021/06/10 06:11:41;;;;;;;6.10;3.70;;;22.90;54.20;;;;;;5055111;28;20082;-68
2021/06/10 06:16:34;;;;;;;5.53;3.05;;;22.90;54.10;;;;;;5053825;28;20488;-68
2021/06/10 06:19:01;;;;;;;4.97;3.05;;;23.00;54.10;;;;;;5054980;28;20021;-68
2021/06/10 06:21:27;;;;;;;6.47;3.90;;;22.90;54.00;;;;;;5055115;28;20029;-68
2021/06/10 06:23:53;;;;;;;5.68;3.45;;;23.00;54.00;;;;;;5055106;28;20052;-70
2021/06/10 06:26:20;;;;;;;5.85;3.00;;;22.90;54.00;;;;;;5054490;28;20047;-67
2021/06/10 06:28:45;;;;;;;6.22;3.42;;;23.00;54.00;;;;;;5053695;28;20104;-68
2021/06/10 06:31:11;;;;;;;6.95;3.55;;;23.00;54.00;;;;;;5054451;28;20047;-68
2021/06/10 06:33:37;;;;;;;5.28;3.20;;;23.00;53.90;;;;;;5054538;28;20078;-69
2021/06/10 06:36:03;;;;;;;5.38;3.38;;;23.00;53.90;;;;;;5053153;28;20028;-67
2021/06/10 06:38:29;;;;;;;5.28;3.30;;;23.00;53.90;;;;;;5054485;28;20457;-69
2021/06/10 06:40:54;;;;;;;4.90;3.22;;;23.00;53.90;;;;;;5054305;28;20115;-69
2021/06/10 06:43:20;;;;;;;6.07;3.60;;;23.00;53.80;;;;;;5054277;28;20056;-68
2021/06/10 06:45:45;;;;;;;4.93;3.00;;;23.00;53.80;;;;;;5054228;28;20464;-68
2021/06/10 06:48:13;;;;;;;6.40;3.20;;;23.10;53.80;;;;;;5054209;28;20391;-68
2021/06/10 06:50:39;;;;;;;6.22;3.28;;;23.10;53.80;;;;;;5054312;28;20032;-68
2021/06/10 06:53:05;;;;;;;5.15;2.90;;;23.10;53.80;;;;;;5052740;28;20464;-68
2021/06/10 06:55:31;;;;;;;5.60;3.05;;;23.10;53.70;;;;;;5052784;28;20037;-68
2021/06/10 06:57:56;;;;;;;7.07;3.55;;;23.10;53.70;;;;;;5054128;28;20463;-68
2021/06/10 07:00:23;;;;;;;5.40;3.20;;;23.10;53.70;;;;;;5053751;28;20052;-68
2021/06/10 07:02:49;;;;;;;4.38;2.70;;;23.10;53.70;;;;;;5044452;28;20078;-67
2021/06/10 07:05:15;;;;;;;5.22;3.20;;;23.20;53.70;;;;;;5032393;28;20393;-68
2021/06/10 07:07:40;;;;;;;5.78;3.10;;;23.20;53.60;;;;;;5031763;28;20032;-66
2021/06/10 07:10:07;;;;;;;5.68;3.25;;;23.20;53.60;;;;;;5033519;28;20482;-67
2021/06/10 07:12:32;;;;;;;5.50;3.00;;;23.20;53.60;;;;;;5032367;28;20033;-68
2021/06/10 07:14:59;;;;;;;5.18;3.20;;;23.20;53.50;;;;;;5032998;28;20461;-68
2021/06/10 07:17:25;;;;;;;5.47;3.22;;;23.30;53.50;;;;;;5033111;28;20038;-68
2021/06/10 07:19:52;;;;;;;5.13;2.92;;;23.30;53.50;;;;;;5033020;28;20108;-68
2021/06/10 07:22:18;;;;;;;4.80;2.70;;;23.30;53.40;;;;;;5032893;28;20021;-69
2021/06/10 07:24:46;;;;;;;4.40;2.65;;;23.30;53.40;;;;;;5032342;28;20468;-68
2021/06/10 07:27:16;;;;;;;4.43;2.72;;;23.30;53.30;;;;;;5031580;28;20033;-66
2021/06/10 07:29:42;;;;;;;6.88;3.28;;;23.30;53.30;;;;;;5032677;28;20029;-67
2021/06/10 07:32:08;;;;;;;5.30;3.10;;;23.30;53.30;;;;;;5032735;28;20030;-68
2021/06/10 07:34:34;;;;;;;4.88;2.80;;;23.40;53.30;;;;;;5030630;28;20017;-69
2021/06/10 07:37:00;;;;;;;6.68;3.47;;;23.40;53.30;;;;;;5032812;28;20037;-68
2021/06/10 07:39:25;;;;;;;5.22;3.13;;;23.40;53.30;;;;;;5031138;28;20489;-68
2021/06/10 07:41:51;;;;;;;5.47;3.13;;;23.40;53.30;;;;;;5032262;28;20073;-66
2021/06/10 07:44:16;;;;;;;5.93;2.90;;;23.40;53.30;;;;;;5031616;28;20126;-67
2021/06/10 07:46:42;;;;;;;5.30;2.90;;;23.40;53.30;;;;;;5032786;28;20477;-66
2021/06/10 07:49:07;;;;;;;4.85;2.88;;;23.40;53.30;;;;;;5037584;28;20029;-65
2021/06/10 07:51:33;;;;;;;5.30;2.72;;;23.40;53.20;;;;;;5038477;28;20021;-66
2021/06/10 07:53:59;;;;;;;4.43;2.72;;;23.50;53.40;;;;;;5032535;28;20022;-65
2021/06/10 07:56:24;;;;;;;5.25;2.92;;;23.50;53.30;;;;;;5031427;28;20027;-65
2021/06/10 07:58:50;;;;;;;5.05;2.67;;;23.50;53.20;;;;;;5031018;28;20207;-65
2021/06/10 08:01:16;;;;;;;4.40;2.58;;;23.50;53.30;;;;;;5032396;28;20033;-65
2021/06/10 08:03:41;;;;;;;5.72;2.05;;;23.50;53.20;;;;;;5032436;28;20075;-65
2021/06/10 08:06:07;;;;;;;4.38;2.60;;;23.50;53.20;;;;;;5032971;28;20107;-65
2021/06/10 08:08:33;;;;;;;6.00;2.80;;;23.50;53.20;;;;;;5031567;28;20064;-65
2021/06/10 08:11:05;;;;;;;4.25;2.72;;;23.50;53.20;;;;;;5032552;28;20091;-65
2021/06/10 08:13:31;;;;;;;5.82;2.38;;;23.50;53.20;;;;;;5032920;28;20485;-65
2021/06/10 08:15:56;;;;;;;5.03;2.80;;;23.50;53.20;;;;;;5031989;28;20034;-65
2021/06/10 08:18:22;;;;;;;5.32;2.65;;;23.50;53.20;;;;;;5035598;28;20033;-65
2021/06/10 08:20:47;;;;;;;5.45;2.95;;;23.50;53.20;;;;;;5034372;28;20030;-65
2021/06/10 08:23:13;;;;;;;5.22;2.75;;;23.50;53.20;;;;;;5032786;28;20045;-65
2021/06/10 08:25:44;;;;;;;4.57;2.63;;;23.50;53.10;;;;;;5032741;28;20087;-65
2021/06/10 08:28:12;;;;;;;4.82;2.50;;;23.50;53.10;;;;;;5032772;28;20025;-65
2021/06/10 08:30:39;;;;;;;5.03;2.60;;;23.50;53.10;;;;;;5033142;28;20082;-65
2021/06/10 08:33:05;;;;;;;4.05;2.47;;;23.50;53.10;;;;;;5031482;28;20030;-65
2021/06/10 08:35:30;;;;;;;5.63;3.10;;;23.50;53.10;;;;;;5033047;28;20029;-65
2021/06/10 08:37:58;;;;;;;3.80;2.30;;;23.50;53.10;;;;;;5032572;28;20044;-65
2021/06/10 08:40:23;;;;;;;4.82;2.83;;;23.50;53.10;;;;;;5032576;28;20485;-65
2021/06/10 08:42:49;;;;;;;5.38;2.28;;;23.50;53.10;;;;;;5032559;28;20104;-65
2021/06/10 08:45:17;;;;;;;5.55;2.55;;;23.50;53.20;;;;;;5032629;28;20123;-65
2021/06/10 08:47:47;;;;;;;5.88;2.20;;;23.50;53.20;;;;;;5033997;28;20083;-65
2021/06/10 08:50:17;;;;;;;3.70;1.55;;;23.50;53.10;;;;;;5039258;28;20025;-65
2021/06/10 08:52:42;;;;;;;5.20;2.80;;;23.50;53.10;;;;;;5033015;28;20540;-65
2021/06/10 08:55:08;;;;;;;3.70;2.10;;;23.50;53.10;;;;;;5036050;28;20030;-65
2021/06/10 08:57:35;;;;;;;4.43;2.63;;;23.50;53.10;;;;;;5036563;28;20029;-65
2021/06/10 09:00:02;;;;;;;4.88;2.60;;;23.50;53.10;;;;;;5036581;28;20018;-65
2021/06/10 09:02:27;;;;;;;3.33;1.80;;;23.50;53.10;;;;;;5036493;28;20033;-65
2021/06/10 09:05:00;;;;;;;4.45;2.58;;;23.50;53.10;;;;;;5039309;28;20017;-65
2021/06/10 09:07:36;;;;;;;4.70;2.60;;;23.50;53.10;;;;;;5042372;28;20026;-66
2021/06/10 09:10:05;;;;;;;3.75;2.20;;;23.50;53.10;;;;;;5044180;28;20549;-65
2021/06/10 09:12:48;;;;;;;4.57;2.35;;;23.50;53.10;;;;;;5039409;28;20465;-65
2021/06/10 09:15:16;;;;;;;2.93;2.13;;;23.50;53.10;;;;;;5036770;28;20354;-65
2021/06/10 09:17:42;;;;;;;4.13;2.30;;;23.50;53.10;;;;;;5036134;28;20030;-65
2021/06/10 09:20:20;;;;;;;5.43;2.75;;;23.50;53.10;;;;;;5035699;28;20159;-65
2021/06/10 09:22:50;;;;;;;4.38;2.22;;;23.50;53.10;;;;;;5035597;28;20033;-65
2021/06/10 09:25:19;;;;;;;4.38;2.40;;;23.50;53.10;;;;;;5035517;28;20080;-65
2021/06/10 09:27:55;;;;;;;4.40;1.90;;;23.50;53.10;;;;;;5035524;28;20048;-65
2021/06/10 09:30:34;;;;;;;3.25;1.58;;;23.50;53.10;;;;;;5035610;28;20036;-65
2021/06/10 09:33:02;;;;;;;3.78;1.95;;;23.50;53.10;;;;;;5035426;28;20385;-65
2021/06/10 09:35:33;;;;;;;3.05;1.83;;;23.50;53.10;;;;;;5035279;28;20025;-65
2021/06/10 09:38:00;;;;;;;4.60;2.20;;;23.50;53.00;;;;;;5035305;28;20144;-65
2021/06/10 09:40:28;;;;;;;5.63;2.50;;;23.50;53.10;;;;;;5035041;28;20033;-65
2021/06/10 09:42:55;;;;;;;3.63;1.92;;;23.50;53.10;;;;;;5035103;28;20084;-65
2021/06/10 09:45:24;;;;;;;5.72;2.80;;;23.50;53.00;;;;;;5033623;28;20041;-65
2021/06/10 09:47:53;;;;;;;4.65;2.40;;;23.50;53.10;;;;;;5035546;28;20021;-65
2021/06/10 09:50:47;;;;;;;3.83;1.92;;;23.60;53.10;;;;;;5033933;28;20022;-65
2021/06/10 09:53:17;;;;;;;3.33;1.75;;;23.50;53.00;;;;;;5035088;28;20022;-66
2021/06/10 09:55:52;;;;;;;5.82;2.72;;;23.60;53.00;;;;;;5035115;28;20025;-65
2021/06/10 09:58:32;;;;;;;5.90;2.50;;;23.60;53.00;;;;;;5035091;28;20018;-65
2021/06/10 10:01:01;;;;;;;4.07;2.60;;;23.60;53.00;;;;;;5035359;28;20014;-65
2021/06/10 10:03:29;;;;;;;3.95;2.30;;;23.60;53.00;;;;;;5035920;28;20057;-65
2021/06/10 10:06:08;;;;;;;3.42;2.05;;;23.60;53.00;;;;;;5034411;28;20033;-65
2021/06/10 10:08:35;;;;;;;4.03;1.98;;;23.50;53.00;;;;;;5034970;28;20021;-65
2021/06/10 10:11:04;;;;;;;4.32;2.38;;;23.60;53.00;;;;;;5033718;28;20543;-65
2021/06/10 10:13:31;;;;;;;3.53;1.92;;;23.60;53.00;;;;;;5034723;28;20032;-65
2021/06/10 10:15:58;;;;;;;2.90;1.70;;;23.60;53.00;;;;;;5035051;28;20103;-65
2021/06/10 10:18:24;;;;;;;3.40;1.98;;;23.60;53.00;;;;;;5034844;28;20029;-65
2021/06/10 10:20:50;;;;;;;4.20;2.30;;;23.60;53.00;;;;;;5034832;28;20028;-65
2021/06/10 10:23:16;;;;;;;4.22;1.90;;;23.60;53.00;;;;;;5034746;28;20029;-65
2021/06/10 10:25:42;;;;;;;3.53;1.92;;;23.70;53.00;;;;;;5034490;28;20029;-66
2021/06/10 10:28:10;;;;;;;3.97;2.10;;;23.70;52.90;;;;;;5033657;28;20382;-66
2021/06/10 10:30:44;;;;;;;2.72;1.48;;;23.70;52.90;;;;;;5033212;28;20022;-65
2021/06/10 10:33:21;;;;;;;3.25;1.90;;;23.60;53.00;;;;;;5034015;28;20381;-64
2021/06/10 10:36:03;;;;;;;3.63;1.92;;;23.60;53.00;;;;;;5032667;28;20038;-66
2021/06/10 10:38:38;;;;;;;3.58;2.10;;;23.70;52.90;;;;;;5033751;28;20087;-66
2021/06/10 10:41:12;;;;;;;3.58;2.03;;;23.70;52.90;;;;;;5035560;28;20077;-66
2021/06/10 10:43:38;;;;;;;3.78;1.98;;;23.70;52.80;;;;;;5034011;28;20125;-65
2021/06/10 10:46:10;;;;;;;3.38;1.60;;;23.70;52.80;;;;;;5033454;28;20061;-66
2021/06/10 10:48:44;;;;;;;3.92;2.13;;;23.70;52.70;;;;;;5033481;28;20637;-65
2021/06/10 10:51:36;;;;;;;3.53;2.00;;;23.80;52.80;;;;;;5033645;28;20029;-64
2021/06/10 10:54:06;;;;;;;3.55;2.00;;;23.80;52.80;;;;;;5033091;28;20025;-64
2021/06/10 10:56:36;;;;;;;3.42;1.73;;;23.80;52.70;;;;;;5033710;28;20196;-65
2021/06/10 10:59:16;;;;;;;3.67;1.92;;;23.80;52.60;;;;;;5033206;28;20021;-65
2021/06/10 11:02:04;;;;;;;4.65;2.30;;;23.80;52.70;;;;;;5033337;28;20091;-65
2021/06/10 11:04:56;;;;;;;4.18;1.90;;;23.80;52.70;;;;;;5033364;28;20080;-65
2021/06/10 11:07:50;;;;;;;3.63;1.60;;;23.90;52.60;;;;;;5033189;28;20028;-65
2021/06/10 11:10:36;;;;;;;3.90;1.90;;;23.90;52.70;;;;;;5031377;28;20159;-65
2021/06/10 11:13:14;;;;;;;3.05;1.85;;;23.80;52.70;;;;;;5033488;28;20093;-64
2021/06/10 11:15:42;;;;;;;3.55;2.15;;;23.90;52.70;;;;;;5033392;28;20030;-65
2021/06/10 11:18:08;;;;;;;3.80;2.00;;;23.90;52.60;;;;;;5037076;28;20025;-64
2021/06/10 11:20:37;;;;;;;4.25;2.00;;;23.90;52.60;;;;;;5035703;28;20056;-64
2021/06/10 11:23:26;;;;;;;3.42;1.88;;;24.00;52.60;;;;;;5033795;28;20030;-65
2021/06/10 11:25:53;;;;;;;3.38;1.92;;;24.00;52.60;;;;;;5041500;28;20052;-65
2021/06/10 11:28:20;;;;;;;4.22;1.90;;;24.00;52.60;;;;;;5041362;28;20021;-65
2021/06/10 11:30:48;;;;;;;3.40;1.70;;;24.00;52.50;;;;;;5054996;28;20065;-65
2021/06/10 11:33:17;;;;;;;3.67;1.98;;;24.10;52.50;;;;;;5054698;28;20286;-65
2021/06/10 11:35:53;;;;;;;2.83;1.65;;;24.10;52.40;;;;;;5053838;28;20025;-65
2021/06/10 11:38:30;;;;;;;4.93;2.15;;;24.10;52.40;;;;;;5034661;28;20491;-64
2021/06/10 11:41:02;;;;;;;4.40;2.00;;;24.20;52.40;;;;;;5051695;28;20116;-65
2021/06/10 11:43:30;;;;;;;3.97;1.95;;;24.10;52.50;;;;;;5052998;28;20045;-64
2021/06/10 11:46:07;;;;;;;3.15;1.80;;;24.10;52.50;;;;;;5053089;28;20033;-64
2021/06/10 11:48:45;;;;;;;4.30;1.92;;;24.20;52.30;;;;;;5052181;28;20437;-64
2021/06/10 11:51:30;;;;;;;2.65;1.58;;;24.20;52.30;;;;;;5052695;28;20021;-64
2021/06/10 11:54:04;;;;;;;5.65;2.25;;;24.20;52.30;;;;;;5052664;28;20029;-64
2021/06/10 11:56:30;;;;;;;3.30;1.55;;;24.20;52.50;;;;;;5052421;28;20100;-64
2021/06/10 11:59:03;;;;;;;4.50;2.13;;;24.20;52.40;;;;;;5051537;28;20041;-66
2021/06/10 12:01:29;;;;;;;2.58;1.40;;;24.30;52.30;;;;;;5052355;28;20024;-64
2021/06/10 12:04:05;;;;;;;3.33;1.88;;;24.30;52.10;;;;;;5037452;28;20029;-65
2021/06/10 12:06:31;;;;;;;3.67;1.67;;;24.30;52.20;;;;;;5032299;28;20500;-64
2021/06/10 12:08:56;;;;;;;3.22;1.67;;;24.40;52.10;;;;;;5031807;28;20128;-65
2021/06/10 12:11:22;;;;;;;3.33;1.75;;;24.40;51.90;;;;;;5032208;28;20029;-64
2021/06/10 12:13:52;;;;;;;2.78;1.52;;;24.50;51.90;;;;;;5031473;28;20013;-63
2021/06/10 12:16:19;;;;;;;3.20;1.70;;;24.50;51.80;;;;;;5032219;28;20083;-64
2021/06/10 12:18:49;;;;;;;3.15;1.75;;;24.50;51.90;;;;;;5030943;28;20025;-66
2021/06/10 12:21:18;;;;;;;4.13;1.67;;;24.60;51.80;;;;;;5032136;28;20215;-64
2021/06/10 12:23:49;;;;;;;3.40;1.88;;;24.60;51.70;;;;;;5031273;28;20025;-63
2021/06/10 12:26:17;;;;;;;3.53;1.70;;;24.60;51.80;;;;;;5031397;28;20079;-64
2021/06/10 12:28:57;;;;;;;4.43;1.50;;;24.60;51.80;;;;;;5037008;28;20025;-66
2021/06/10 12:31:25;;;;;;;2.95;1.75;;;24.70;51.70;;;;;;5038398;28;20116;-66
2021/06/10 12:33:52;;;;;;;5.38;1.88;;;24.70;51.70;;;;;;5037914;28;20029;-66
2021/06/10 12:36:26;;;;;;;3.40;1.90;;;24.70;51.70;;;;;;5039419;28;20461;-66
2021/06/10 12:39:19;;;;;;;3.73;1.40;;;24.70;51.70;;;;;;5039634;28;20065;-65
2021/06/10 12:41:51;;;;;;;2.90;1.50;;;24.70;51.70;;;;;;5038787;28;20045;-65
2021/06/10 12:44:34;;;;;;;3.78;1.70;;;24.70;51.70;;;;;;5039049;28;20048;-65
2021/06/10 12:47:02;;;;;;;3.30;1.60;;;24.80;51.60;;;;;;5039498;28;20079;-65
2021/06/10 12:49:43;;;;;;;3.60;1.77;;;24.90;51.60;;;;;;5039008;28;20025;-65
2021/06/10 12:52:16;;;;;;;1.83;1.02;;;24.90;51.50;;;;;;5038550;28;20064;-65
2021/06/10 12:54:49;;;;;;;3.00;1.45;;;25.00;51.40;;;;;;5039053;28;20440;-65
2021/06/10 12:57:23;;;;;;;1.55;0.98;;;25.00;51.30;;;;;;5039235;28;20079;-65